Portada
METAR-TAF:

METAR-TAF

Aeroports :

Hanamaki, Japó

latitud: 39-26N, longitud: 141-08E, altitud: 90 m

Observació

L'informe es va fer fa 52 minuts, a les 00:00 UTC
Vent 16 kt del Sud/Sud-Est
Temperatura 20°C
Humitat 64%
Pressió 1016 hPa
Visibilitat 10 km o més
Escasses núvols a una alçada de 2000 ft
Núvols disperses a una alçada de 3000 ft
Cel ennuvolat a una alçada de 4000 ft

METAR: RJSI 200000Z 16016KT 9999 FEW020 SCT030 BKN040 20/13 Q1016

Hora: 09:52 (00:52 UTC)


TAF: manca

Observacions i pronòstics meteorològics de més de 4000 aeroports (METAR i TAF).

Les estacions disponibles són els punts grocs i vermells al mapa.

Posi el ratolí al punt desitjat per veure el nom de l'estació.

Feu clic per veure les observacions i els pronòstics meteorològics.

Per canviar el mapa: feu clic els botons verds amb una creu de color negre per apropar; al botó verd amb un guió per allunyar la imatge; o en les fletxes verdes per a mapes adjacents.


METAR-TAF: